sensor_id;sensor_type;location;lat;lon;timestamp;P1;durP1;ratioP1;P2;durP2;ratioP2
2041;SDS011;1026;51.460;7.252;2024-03-25T00:01:14;3.87;;;2.57;;
2041;SDS011;1026;51.460;7.252;2024-03-25T00:03:40;9.67;;;3.27;;
2041;SDS011;1026;51.460;7.252;2024-03-25T00:06:06;5.90;;;4.03;;
2041;SDS011;1026;51.460;7.252;2024-03-25T00:08:32;3.83;;;2.40;;
2041;SDS011;1026;51.460;7.252;2024-03-25T00:10:58;6.87;;;2.37;;
2041;SDS011;1026;51.460;7.252;2024-03-25T00:13:24;22.47;;;4.20;;
2041;SDS011;1026;51.460;7.252;2024-03-25T00:15:50;6.13;;;2.60;;
2041;SDS011;1026;51.460;7.252;2024-03-25T00:18:16;8.00;;;3.80;;
2041;SDS011;1026;51.460;7.252;2024-03-25T00:20:42;3.20;;;2.23;;
2041;SDS011;1026;51.460;7.252;2024-03-25T00:23:09;10.03;;;3.10;;
2041;SDS011;1026;51.460;7.252;2024-03-25T00:25:35;8.57;;;3.33;;
2041;SDS011;1026;51.460;7.252;2024-03-25T00:28:01;10.00;;;4.07;;
2041;SDS011;1026;51.460;7.252;2024-03-25T00:30:27;18.90;;;4.13;;
2041;SDS011;1026;51.460;7.252;2024-03-25T00:32:53;5.50;;;3.30;;
2041;SDS011;1026;51.460;7.252;2024-03-25T00:35:18;10.30;;;5.43;;
2041;SDS011;1026;51.460;7.252;2024-03-25T00:37:44;4.33;;;2.90;;
2041;SDS011;1026;51.460;7.252;2024-03-25T00:40:11;12.87;;;5.23;;
2041;SDS011;1026;51.460;7.252;2024-03-25T00:42:37;12.23;;;6.00;;
2041;SDS011;1026;51.460;7.252;2024-03-25T00:45:03;9.87;;;5.47;;
2041;SDS011;1026;51.460;7.252;2024-03-25T00:47:31;8.40;;;4.70;;
2041;SDS011;1026;51.460;7.252;2024-03-25T00:49:57;25.40;;;9.77;;
2041;SDS011;1026;51.460;7.252;2024-03-25T00:52:23;14.73;;;6.00;;
2041;SDS011;1026;51.460;7.252;2024-03-25T00:54:49;7.80;;;4.53;;
2041;SDS011;1026;51.460;7.252;2024-03-25T00:57:15;17.90;;;7.83;;
2041;SDS011;1026;51.460;7.252;2024-03-25T00:59:41;22.57;;;9.23;;
2041;SDS011;1026;51.460;7.252;2024-03-25T01:02:07;7.43;;;4.40;;
2041;SDS011;1026;51.460;7.252;2024-03-25T01:04:33;8.57;;;5.20;;
2041;SDS011;1026;51.460;7.252;2024-03-25T01:06:59;12.50;;;6.17;;
2041;SDS011;1026;51.460;7.252;2024-03-25T01:09:25;13.20;;;4.30;;
2041;SDS011;1026;51.460;7.252;2024-03-25T01:11:51;18.13;;;8.00;;
2041;SDS011;1026;51.460;7.252;2024-03-25T01:14:17;16.57;;;5.73;;
2041;SDS011;1026;51.460;7.252;2024-03-25T01:16:43;7.10;;;4.70;;
2041;SDS011;1026;51.460;7.252;2024-03-25T01:19:09;15.90;;;6.10;;
2041;SDS011;1026;51.460;7.252;2024-03-25T01:21:35;13.20;;;5.80;;
2041;SDS011;1026;51.460;7.252;2024-03-25T01:24:01;20.73;;;10.50;;
2041;SDS011;1026;51.460;7.252;2024-03-25T01:26:27;8.77;;;4.23;;
2041;SDS011;1026;51.460;7.252;2024-03-25T01:28:54;18.10;;;9.93;;
2041;SDS011;1026;51.460;7.252;2024-03-25T01:31:19;12.23;;;7.77;;
2041;SDS011;1026;51.460;7.252;2024-03-25T01:33:45;16.70;;;8.63;;
2041;SDS011;1026;51.460;7.252;2024-03-25T01:36:11;14.50;;;6.87;;
2041;SDS011;1026;51.460;7.252;2024-03-25T01:38:42;10.30;;;5.97;;
2041;SDS011;1026;51.460;7.252;2024-03-25T01:41:12;11.47;;;7.20;;
2041;SDS011;1026;51.460;7.252;2024-03-25T01:43:40;11.97;;;6.93;;
2041;SDS011;1026;51.460;7.252;2024-03-25T01:46:06;9.23;;;5.37;;
2041;SDS011;1026;51.460;7.252;2024-03-25T01:48:33;19.17;;;8.40;;
2041;SDS011;1026;51.460;7.252;2024-03-25T01:50:59;15.30;;;6.10;;
2041;SDS011;1026;51.460;7.252;2024-03-25T01:53:27;6.60;;;4.60;;
2041;SDS011;1026;51.460;7.252;2024-03-25T01:55:55;9.27;;;4.07;;
2041;SDS011;1026;51.460;7.252;2024-03-25T01:58:24;18.83;;;6.53;;
2041;SDS011;1026;51.460;7.252;2024-03-25T02:00:51;14.20;;;6.53;;
2041;SDS011;1026;51.460;7.252;2024-03-25T02:03:20;16.07;;;5.60;;
2041;SDS011;1026;51.460;7.252;2024-03-25T02:05:47;7.67;;;4.87;;
2041;SDS011;1026;51.460;7.252;2024-03-25T02:08:16;11.23;;;5.17;;
2041;SDS011;1026;51.460;7.252;2024-03-25T02:10:44;15.30;;;6.00;;
2041;SDS011;1026;51.460;7.252;2024-03-25T02:13:10;13.03;;;4.87;;
2041;SDS011;1026;51.460;7.252;2024-03-25T02:15:36;8.83;;;4.33;;
2041;SDS011;1026;51.460;7.252;2024-03-25T02:18:02;13.10;;;4.60;;
2041;SDS011;1026;51.460;7.252;2024-03-25T02:20:29;8.50;;;4.47;;
2041;SDS011;1026;51.460;7.252;2024-03-25T02:22:55;7.83;;;4.00;;
2041;SDS011;1026;51.460;7.252;2024-03-25T02:25:21;9.60;;;4.83;;
2041;SDS011;1026;51.460;7.252;2024-03-25T02:27:48;14.37;;;4.47;;
2041;SDS011;1026;51.460;7.252;2024-03-25T02:30:14;13.13;;;4.60;;
2041;SDS011;1026;51.460;7.252;2024-03-25T02:32:40;7.73;;;3.30;;
2041;SDS011;1026;51.460;7.252;2024-03-25T02:35:10;12.07;;;4.30;;
2041;SDS011;1026;51.460;7.252;2024-03-25T02:37:39;7.50;;;3.20;;
2041;SDS011;1026;51.460;7.252;2024-03-25T02:40:06;12.17;;;4.00;;
2041;SDS011;1026;51.460;7.252;2024-03-25T02:42:35;8.87;;;3.20;;
2041;SDS011;1026;51.460;7.252;2024-03-25T02:45:02;6.97;;;2.77;;
2041;SDS011;1026;51.460;7.252;2024-03-25T02:47:28;6.87;;;3.40;;
2041;SDS011;1026;51.460;7.252;2024-03-25T02:49:55;14.27;;;3.33;;
2041;SDS011;1026;51.460;7.252;2024-03-25T02:52:21;8.37;;;3.80;;
2041;SDS011;1026;51.460;7.252;2024-03-25T02:54:47;9.80;;;3.23;;
2041;SDS011;1026;51.460;7.252;2024-03-25T02:57:13;9.13;;;3.50;;
2041;SDS011;1026;51.460;7.252;2024-03-25T02:59:39;4.47;;;2.77;;
2041;SDS011;1026;51.460;7.252;2024-03-25T03:02:04;7.50;;;2.73;;
2041;SDS011;1026;51.460;7.252;2024-03-25T03:04:30;5.23;;;2.83;;
2041;SDS011;1026;51.460;7.252;2024-03-25T03:06:56;4.37;;;2.83;;
2041;SDS011;1026;51.460;7.252;2024-03-25T03:09:23;6.73;;;3.50;;
2041;SDS011;1026;51.460;7.252;2024-03-25T03:11:49;6.13;;;3.07;;
2041;SDS011;1026;51.460;7.252;2024-03-25T03:14:15;7.90;;;3.67;;
2041;SDS011;1026;51.460;7.252;2024-03-25T03:16:40;7.40;;;3.80;;
2041;SDS011;1026;51.460;7.252;2024-03-25T03:19:07;10.77;;;4.53;;
2041;SDS011;1026;51.460;7.252;2024-03-25T03:21:33;11.17;;;5.40;;
2041;SDS011;1026;51.460;7.252;2024-03-25T03:23:58;7.60;;;3.00;;
2041;SDS011;1026;51.460;7.252;2024-03-25T03:26:24;6.70;;;3.10;;
2041;SDS011;1026;51.460;7.252;2024-03-25T03:28:53;11.07;;;3.87;;
2041;SDS011;1026;51.460;7.252;2024-03-25T03:31:19;8.63;;;4.27;;
2041;SDS011;1026;51.460;7.252;2024-03-25T03:33:48;7.80;;;4.00;;
2041;SDS011;1026;51.460;7.252;2024-03-25T03:36:18;6.30;;;4.57;;
2041;SDS011;1026;51.460;7.252;2024-03-25T03:38:45;12.30;;;4.00;;
2041;SDS011;1026;51.460;7.252;2024-03-25T03:41:11;5.30;;;3.30;;
2041;SDS011;1026;51.460;7.252;2024-03-25T03:43:38;8.73;;;3.97;;
2041;SDS011;1026;51.460;7.252;2024-03-25T03:46:04;5.57;;;2.67;;
2041;SDS011;1026;51.460;7.252;2024-03-25T03:48:30;6.97;;;3.67;;
2041;SDS011;1026;51.460;7.252;2024-03-25T03:50:56;7.97;;;3.83;;
2041;SDS011;1026;51.460;7.252;2024-03-25T03:53:22;9.33;;;4.97;;
2041;SDS011;1026;51.460;7.252;2024-03-25T03:55:55;8.13;;;3.80;;
2041;SDS011;1026;51.460;7.252;2024-03-25T03:58:22;11.53;;;3.97;;
2041;SDS011;1026;51.460;7.252;2024-03-25T04:00:50;5.73;;;3.60;;
2041;SDS011;1026;51.460;7.252;2024-03-25T04:03:16;5.80;;;4.07;;
2041;SDS011;1026;51.460;7.252;2024-03-25T04:05:42;6.43;;;3.03;;
2041;SDS011;1026;51.460;7.252;2024-03-25T04:08:09;12.30;;;4.67;;
2041;SDS011;1026;51.460;7.252;2024-03-25T04:10:35;14.03;;;5.00;;
2041;SDS011;1026;51.460;7.252;2024-03-25T04:13:01;7.93;;;4.50;;
2041;SDS011;1026;51.460;7.252;2024-03-25T04:15:28;5.33;;;4.20;;
2041;SDS011;1026;51.460;7.252;2024-03-25T04:17:54;5.43;;;3.97;;
2041;SDS011;1026;51.460;7.252;2024-03-25T04:20:20;7.50;;;3.80;;
2041;SDS011;1026;51.460;7.252;2024-03-25T04:22:46;5.03;;;3.50;;
2041;SDS011;1026;51.460;7.252;2024-03-25T04:25:15;4.07;;;2.67;;
2041;SDS011;1026;51.460;7.252;2024-03-25T04:27:42;7.40;;;4.20;;
2041;SDS011;1026;51.460;7.252;2024-03-25T04:30:08;7.80;;;3.57;;
2041;SDS011;1026;51.460;7.252;2024-03-25T04:32:36;8.90;;;3.73;;
2041;SDS011;1026;51.460;7.252;2024-03-25T04:35:03;7.40;;;3.70;;
2041;SDS011;1026;51.460;7.252;2024-03-25T04:37:31;5.30;;;2.80;;
2041;SDS011;1026;51.460;7.252;2024-03-25T04:39:58;5.77;;;3.10;;
2041;SDS011;1026;51.460;7.252;2024-03-25T04:42:24;7.20;;;3.47;;
2041;SDS011;1026;51.460;7.252;2024-03-25T04:44:50;12.57;;;4.40;;
2041;SDS011;1026;51.460;7.252;2024-03-25T04:47:16;12.40;;;4.93;;
2041;SDS011;1026;51.460;7.252;2024-03-25T04:49:42;5.37;;;3.50;;
2041;SDS011;1026;51.460;7.252;2024-03-25T04:52:09;7.30;;;4.87;;
2041;SDS011;1026;51.460;7.252;2024-03-25T04:54:38;8.60;;;4.07;;
2041;SDS011;1026;51.460;7.252;2024-03-25T04:57:04;7.80;;;3.80;;
2041;SDS011;1026;51.460;7.252;2024-03-25T04:59:31;7.70;;;4.30;;
2041;SDS011;1026;51.460;7.252;2024-03-25T05:01:58;10.03;;;4.00;;
2041;SDS011;1026;51.460;7.252;2024-03-25T05:04:24;14.23;;;4.60;;
2041;SDS011;1026;51.460;7.252;2024-03-25T05:06:50;5.70;;;4.00;;
2041;SDS011;1026;51.460;7.252;2024-03-25T05:09:16;7.40;;;3.70;;
2041;SDS011;1026;51.460;7.252;2024-03-25T05:11:43;8.00;;;4.60;;
2041;SDS011;1026;51.460;7.252;2024-03-25T05:14:09;8.10;;;4.50;;
2041;SDS011;1026;51.460;7.252;2024-03-25T05:16:35;4.43;;;3.20;;
2041;SDS011;1026;51.460;7.252;2024-03-25T05:19:02;10.83;;;5.50;;
2041;SDS011;1026;51.460;7.252;2024-03-25T05:21:29;6.50;;;3.83;;
2041;SDS011;1026;51.460;7.252;2024-03-25T05:23:56;9.47;;;4.57;;
2041;SDS011;1026;51.460;7.252;2024-03-25T05:26:22;7.17;;;4.53;;
2041;SDS011;1026;51.460;7.252;2024-03-25T05:28:54;9.70;;;4.17;;
2041;SDS011;1026;51.460;7.252;2024-03-25T05:31:21;8.83;;;3.67;;
2041;SDS011;1026;51.460;7.252;2024-03-25T05:33:47;9.73;;;4.80;;
2041;SDS011;1026;51.460;7.252;2024-03-25T05:36:14;5.57;;;3.70;;
2041;SDS011;1026;51.460;7.252;2024-03-25T05:38:40;7.00;;;3.63;;
2041;SDS011;1026;51.460;7.252;2024-03-25T05:41:08;8.00;;;3.60;;
2041;SDS011;1026;51.460;7.252;2024-03-25T05:43:34;8.30;;;2.90;;
2041;SDS011;1026;51.460;7.252;2024-03-25T05:46:00;6.27;;;4.37;;
2041;SDS011;1026;51.460;7.252;2024-03-25T05:48:26;9.90;;;4.50;;
2041;SDS011;1026;51.460;7.252;2024-03-25T05:51:02;6.77;;;3.63;;
2041;SDS011;1026;51.460;7.252;2024-03-25T05:53:30;7.30;;;3.67;;
2041;SDS011;1026;51.460;7.252;2024-03-25T05:55:56;5.73;;;3.70;;
2041;SDS011;1026;51.460;7.252;2024-03-25T05:58:24;8.50;;;3.20;;
2041;SDS011;1026;51.460;7.252;2024-03-25T06:00:50;8.20;;;3.80;;
2041;SDS011;1026;51.460;7.252;2024-03-25T06:03:18;7.80;;;3.17;;
2041;SDS011;1026;51.460;7.252;2024-03-25T06:05:44;8.70;;;3.37;;
2041;SDS011;1026;51.460;7.252;2024-03-25T06:08:10;3.90;;;3.33;;
2041;SDS011;1026;51.460;7.252;2024-03-25T06:10:45;3.53;;;2.87;;
2041;SDS011;1026;51.460;7.252;2024-03-25T06:13:11;8.47;;;4.60;;
2041;SDS011;1026;51.460;7.252;2024-03-25T06:15:37;6.50;;;3.90;;
2041;SDS011;1026;51.460;7.252;2024-03-25T06:18:03;7.47;;;3.70;;
2041;SDS011;1026;51.460;7.252;2024-03-25T06:20:29;12.03;;;4.20;;
2041;SDS011;1026;51.460;7.252;2024-03-25T06:22:55;6.93;;;3.53;;
2041;SDS011;1026;51.460;7.252;2024-03-25T06:25:21;9.03;;;4.47;;
2041;SDS011;1026;51.460;7.252;2024-03-25T06:27:47;10.77;;;4.73;;
2041;SDS011;1026;51.460;7.252;2024-03-25T06:30:13;5.20;;;3.43;;
2041;SDS011;1026;51.460;7.252;2024-03-25T06:32:57;5.80;;;3.77;;
2041;SDS011;1026;51.460;7.252;2024-03-25T06:35:42;12.83;;;4.97;;
2041;SDS011;1026;51.460;7.252;2024-03-25T06:38:09;6.40;;;4.10;;
2041;SDS011;1026;51.460;7.252;2024-03-25T06:40:35;6.03;;;3.90;;
2041;SDS011;1026;51.460;7.252;2024-03-25T06:43:01;6.13;;;3.67;;
2041;SDS011;1026;51.460;7.252;2024-03-25T06:45:27;9.43;;;3.03;;
2041;SDS011;1026;51.460;7.252;2024-03-25T06:47:53;7.67;;;3.77;;
2041;SDS011;1026;51.460;7.252;2024-03-25T06:50:19;7.10;;;4.07;;
2041;SDS011;1026;51.460;7.252;2024-03-25T06:52:45;7.93;;;3.70;;
2041;SDS011;1026;51.460;7.252;2024-03-25T06:55:11;8.50;;;4.00;;
2041;SDS011;1026;51.460;7.252;2024-03-25T06:57:37;5.50;;;3.50;;
2041;SDS011;1026;51.460;7.252;2024-03-25T07:00:03;5.00;;;3.70;;
2041;SDS011;1026;51.460;7.252;2024-03-25T07:02:32;5.70;;;3.40;;
2041;SDS011;1026;51.460;7.252;2024-03-25T07:04:58;4.97;;;3.53;;
2041;SDS011;1026;51.460;7.252;2024-03-25T07:07:24;6.73;;;3.77;;
2041;SDS011;1026;51.460;7.252;2024-03-25T07:09:50;11.33;;;4.00;;
2041;SDS011;1026;51.460;7.252;2024-03-25T07:12:15;9.67;;;3.70;;
2041;SDS011;1026;51.460;7.252;2024-03-25T07:14:41;6.63;;;3.57;;
2041;SDS011;1026;51.460;7.252;2024-03-25T07:17:07;6.87;;;3.97;;
2041;SDS011;1026;51.460;7.252;2024-03-25T07:19:33;5.33;;;3.50;;
2041;SDS011;1026;51.460;7.252;2024-03-25T07:21:59;5.07;;;3.33;;
2041;SDS011;1026;51.460;7.252;2024-03-25T07:24:25;9.10;;;3.80;;
2041;SDS011;1026;51.460;7.252;2024-03-25T07:26:51;12.50;;;4.47;;
2041;SDS011;1026;51.460;7.252;2024-03-25T07:29:16;10.67;;;5.57;;
2041;SDS011;1026;51.460;7.252;2024-03-25T07:31:42;8.43;;;3.80;;
2041;SDS011;1026;51.460;7.252;2024-03-25T07:34:08;5.23;;;3.23;;
2041;SDS011;1026;51.460;7.252;2024-03-25T07:36:37;9.60;;;5.43;;
2041;SDS011;1026;51.460;7.252;2024-03-25T07:39:04;11.43;;;3.80;;
2041;SDS011;1026;51.460;7.252;2024-03-25T07:41:39;5.97;;;3.57;;
2041;SDS011;1026;51.460;7.252;2024-03-25T07:44:04;11.70;;;3.93;;
2041;SDS011;1026;51.460;7.252;2024-03-25T07:46:30;8.13;;;4.00;;
2041;SDS011;1026;51.460;7.252;2024-03-25T07:48:56;5.40;;;3.47;;
2041;SDS011;1026;51.460;7.252;2024-03-25T07:51:22;7.23;;;4.30;;
2041;SDS011;1026;51.460;7.252;2024-03-25T07:53:48;6.57;;;3.43;;
2041;SDS011;1026;51.460;7.252;2024-03-25T07:56:17;9.40;;;4.27;;
2041;SDS011;1026;51.460;7.252;2024-03-25T07:58:44;8.73;;;4.70;;
2041;SDS011;1026;51.460;7.252;2024-03-25T08:01:09;16.87;;;5.27;;
2041;SDS011;1026;51.460;7.252;2024-03-25T08:03:35;11.23;;;4.23;;
2041;SDS011;1026;51.460;7.252;2024-03-25T08:06:01;9.53;;;4.00;;
2041;SDS011;1026;51.460;7.252;2024-03-25T08:08:28;5.83;;;2.93;;
2041;SDS011;1026;51.460;7.252;2024-03-25T08:10:54;6.40;;;3.57;;
2041;SDS011;1026;51.460;7.252;2024-03-25T08:13:21;10.20;;;3.20;;
2041;SDS011;1026;51.460;7.252;2024-03-25T08:15:47;5.70;;;2.97;;
2041;SDS011;1026;51.460;7.252;2024-03-25T08:18:13;11.17;;;4.80;;
2041;SDS011;1026;51.460;7.252;2024-03-25T08:20:39;5.03;;;3.00;;
2041;SDS011;1026;51.460;7.252;2024-03-25T08:23:05;9.90;;;4.47;;
2041;SDS011;1026;51.460;7.252;2024-03-25T08:25:31;8.13;;;4.00;;
2041;SDS011;1026;51.460;7.252;2024-03-25T08:27:57;8.90;;;4.37;;
2041;SDS011;1026;51.460;7.252;2024-03-25T08:30:23;8.93;;;3.90;;
2041;SDS011;1026;51.460;7.252;2024-03-25T08:32:50;11.97;;;5.00;;
2041;SDS011;1026;51.460;7.252;2024-03-25T08:35:16;9.80;;;4.10;;
2041;SDS011;1026;51.460;7.252;2024-03-25T08:37:42;6.60;;;3.90;;
2041;SDS011;1026;51.460;7.252;2024-03-25T08:40:08;14.73;;;4.07;;
2041;SDS011;1026;51.460;7.252;2024-03-25T08:42:34;23.13;;;4.87;;
2041;SDS011;1026;51.460;7.252;2024-03-25T08:45:00;16.70;;;5.73;;
2041;SDS011;1026;51.460;7.252;2024-03-25T08:47:26;15.73;;;4.77;;
2041;SDS011;1026;51.460;7.252;2024-03-25T08:49:54;7.20;;;3.20;;
2041;SDS011;1026;51.460;7.252;2024-03-25T08:52:20;16.73;;;4.73;;
2041;SDS011;1026;51.460;7.252;2024-03-25T08:54:46;10.90;;;3.47;;
2041;SDS011;1026;51.460;7.252;2024-03-25T08:57:13;6.73;;;3.33;;
2041;SDS011;1026;51.460;7.252;2024-03-25T08:59:57;7.53;;;3.43;;
2041;SDS011;1026;51.460;7.252;2024-03-25T09:02:23;8.70;;;2.83;;
2041;SDS011;1026;51.460;7.252;2024-03-25T09:04:49;7.20;;;2.67;;
2041;SDS011;1026;51.460;7.252;2024-03-25T09:10:05;4.93;;;2.20;;
2041;SDS011;1026;51.460;7.252;2024-03-25T09:12:52;6.40;;;3.27;;
2041;SDS011;1026;51.460;7.252;2024-03-25T09:17:59;6.37;;;2.60;;
2041;SDS011;1026;51.460;7.252;2024-03-25T09:20:38;6.30;;;2.27;;
2041;SDS011;1026;51.460;7.252;2024-03-25T09:23:06;5.80;;;2.80;;
2041;SDS011;1026;51.460;7.252;2024-03-25T09:25:42;8.20;;;2.40;;
2041;SDS011;1026;51.460;7.252;2024-03-25T09:28:18;5.77;;;2.97;;
2041;SDS011;1026;51.460;7.252;2024-03-25T09:30:47;10.30;;;2.80;;
2041;SDS011;1026;51.460;7.252;2024-03-25T09:33:17;3.87;;;1.30;;
2041;SDS011;1026;51.460;7.252;2024-03-25T09:35:47;4.83;;;2.03;;
2041;SDS011;1026;51.460;7.252;2024-03-25T09:38:21;5.10;;;2.40;;
2041;SDS011;1026;51.460;7.252;2024-03-25T09:41:08;12.73;;;3.10;;
2041;SDS011;1026;51.460;7.252;2024-03-25T09:43:43;4.33;;;2.10;;
2041;SDS011;1026;51.460;7.252;2024-03-25T09:46:20;7.43;;;3.53;;
2041;SDS011;1026;51.460;7.252;2024-03-25T09:48:55;2.33;;;2.13;;
2041;SDS011;1026;51.460;7.252;2024-03-25T09:51:21;10.13;;;2.30;;
2041;SDS011;1026;51.460;7.252;2024-03-25T09:53:53;6.57;;;2.87;;
2041;SDS011;1026;51.460;7.252;2024-03-25T09:56:27;11.60;;;3.60;;
2041;SDS011;1026;51.460;7.252;2024-03-25T09:59:01;13.83;;;2.97;;
2041;SDS011;1026;51.460;7.252;2024-03-25T10:01:29;9.70;;;2.43;;
2041;SDS011;1026;51.460;7.252;2024-03-25T10:06:34;5.43;;;2.03;;
2041;SDS011;1026;51.460;7.252;2024-03-25T10:09:08;3.43;;;1.87;;
2041;SDS011;1026;51.460;7.252;2024-03-25T10:11:41;4.20;;;2.00;;
2041;SDS011;1026;51.460;7.252;2024-03-25T10:14:12;4.87;;;2.30;;
2041;SDS011;1026;51.460;7.252;2024-03-25T10:16:58;3.30;;;2.40;;
2041;SDS011;1026;51.460;7.252;2024-03-25T10:22:06;3.37;;;2.17;;
2041;SDS011;1026;51.460;7.252;2024-03-25T10:24:41;3.20;;;1.80;;
2041;SDS011;1026;51.460;7.252;2024-03-25T10:27:16;6.17;;;1.40;;
2041;SDS011;1026;51.460;7.252;2024-03-25T10:29:47;4.57;;;2.20;;
2041;SDS011;1026;51.460;7.252;2024-03-25T10:32:18;4.07;;;2.93;;
2041;SDS011;1026;51.460;7.252;2024-03-25T10:34:45;5.10;;;2.50;;
2041;SDS011;1026;51.460;7.252;2024-03-25T10:37:15;8.13;;;2.33;;
2041;SDS011;1026;51.460;7.252;2024-03-25T10:39:50;3.60;;;1.93;;
2041;SDS011;1026;51.460;7.252;2024-03-25T10:42:32;2.47;;;1.43;;
2041;SDS011;1026;51.460;7.252;2024-03-25T10:45:06;6.13;;;1.83;;
2041;SDS011;1026;51.460;7.252;2024-03-25T10:47:37;6.30;;;2.07;;
2041;SDS011;1026;51.460;7.252;2024-03-25T10:50:10;7.33;;;2.40;;
2041;SDS011;1026;51.460;7.252;2024-03-25T10:55:13;5.47;;;1.80;;
2041;SDS011;1026;51.460;7.252;2024-03-25T10:57:45;8.37;;;1.73;;
2041;SDS011;1026;51.460;7.252;2024-03-25T11:00:22;8.83;;;1.90;;
2041;SDS011;1026;51.460;7.252;2024-03-25T11:02:55;6.20;;;1.50;;
2041;SDS011;1026;51.460;7.252;2024-03-25T11:05:22;4.33;;;1.33;;
2041;SDS011;1026;51.460;7.252;2024-03-25T11:07:51;2.17;;;1.63;;
2041;SDS011;1026;51.460;7.252;2024-03-25T11:10:29;5.90;;;2.50;;
2041;SDS011;1026;51.460;7.252;2024-03-25T11:13:13;4.67;;;1.80;;
2041;SDS011;1026;51.460;7.252;2024-03-25T11:15:47;4.00;;;2.20;;
2041;SDS011;1026;51.460;7.252;2024-03-25T11:21:05;3.60;;;2.43;;
2041;SDS011;1026;51.460;7.252;2024-03-25T11:23:44;2.80;;;2.00;;
2041;SDS011;1026;51.460;7.252;2024-03-25T11:26:24;3.20;;;1.70;;
2041;SDS011;1026;51.460;7.252;2024-03-25T11:29:01;3.43;;;1.93;;
2041;SDS011;1026;51.460;7.252;2024-03-25T11:31:29;1.27;;;1.17;;
2041;SDS011;1026;51.460;7.252;2024-03-25T11:34:07;6.30;;;2.10;;
2041;SDS011;1026;51.460;7.252;2024-03-25T11:36:38;3.60;;;1.70;;
2041;SDS011;1026;51.460;7.252;2024-03-25T11:39:14;4.27;;;1.80;;
2041;SDS011;1026;51.460;7.252;2024-03-25T11:41:42;3.77;;;1.70;;
2041;SDS011;1026;51.460;7.252;2024-03-25T11:44:15;4.13;;;2.23;;
2041;SDS011;1026;51.460;7.252;2024-03-25T11:46:49;2.57;;;2.10;;
2041;SDS011;1026;51.460;7.252;2024-03-25T11:49:16;5.40;;;2.07;;
2041;SDS011;1026;51.460;7.252;2024-03-25T11:51:45;4.30;;;1.60;;
2041;SDS011;1026;51.460;7.252;2024-03-25T11:54:11;4.43;;;1.80;;
2041;SDS011;1026;51.460;7.252;2024-03-25T11:56:38;3.63;;;1.90;;
2041;SDS011;1026;51.460;7.252;2024-03-25T11:59:04;4.60;;;1.30;;
2041;SDS011;1026;51.460;7.252;2024-03-25T12:01:31;6.23;;;1.60;;
2041;SDS011;1026;51.460;7.252;2024-03-25T12:03:57;15.33;;;2.60;;
2041;SDS011;1026;51.460;7.252;2024-03-25T12:06:23;4.80;;;2.27;;
2041;SDS011;1026;51.460;7.252;2024-03-25T12:08:49;5.97;;;1.90;;
2041;SDS011;1026;51.460;7.252;2024-03-25T12:11:33;3.93;;;1.67;;
2041;SDS011;1026;51.460;7.252;2024-03-25T12:14:00;2.60;;;1.53;;
2041;SDS011;1026;51.460;7.252;2024-03-25T12:16:27;6.33;;;2.00;;
2041;SDS011;1026;51.460;7.252;2024-03-25T12:18:53;5.80;;;3.27;;
2041;SDS011;1026;51.460;7.252;2024-03-25T12:21:19;4.90;;;2.23;;
2041;SDS011;1026;51.460;7.252;2024-03-25T12:23:46;12.03;;;2.17;;
2041;SDS011;1026;51.460;7.252;2024-03-25T12:26:13;4.80;;;2.07;;
2041;SDS011;1026;51.460;7.252;2024-03-25T12:28:39;7.37;;;2.10;;
2041;SDS011;1026;51.460;7.252;2024-03-25T12:31:08;4.13;;;2.00;;
2041;SDS011;1026;51.460;7.252;2024-03-25T12:33:43;3.73;;;1.80;;
2041;SDS011;1026;51.460;7.252;2024-03-25T12:36:13;4.40;;;1.83;;
2041;SDS011;1026;51.460;7.252;2024-03-25T12:38:39;2.87;;;1.53;;
2041;SDS011;1026;51.460;7.252;2024-03-25T12:41:11;1.40;;;1.27;;
2041;SDS011;1026;51.460;7.252;2024-03-25T12:43:47;2.40;;;1.37;;
2041;SDS011;1026;51.460;7.252;2024-03-25T12:46:14;1.87;;;1.57;;
2041;SDS011;1026;51.460;7.252;2024-03-25T12:48:40;2.63;;;1.30;;
2041;SDS011;1026;51.460;7.252;2024-03-25T12:51:11;3.90;;;1.50;;
2041;SDS011;1026;51.460;7.252;2024-03-25T12:53:38;5.67;;;1.43;;
2041;SDS011;1026;51.460;7.252;2024-03-25T12:56:04;2.97;;;1.37;;
2041;SDS011;1026;51.460;7.252;2024-03-25T12:58:31;4.60;;;1.20;;
2041;SDS011;1026;51.460;7.252;2024-03-25T13:00:57;2.27;;;1.40;;
2041;SDS011;1026;51.460;7.252;2024-03-25T13:03:22;2.50;;;1.70;;
2041;SDS011;1026;51.460;7.252;2024-03-25T13:05:49;6.90;;;1.53;;
2041;SDS011;1026;51.460;7.252;2024-03-25T13:08:15;6.27;;;2.10;;
2041;SDS011;1026;51.460;7.252;2024-03-25T13:10:42;4.43;;;1.87;;
2041;SDS011;1026;51.460;7.252;2024-03-25T13:13:08;1.57;;;1.20;;
2041;SDS011;1026;51.460;7.252;2024-03-25T13:15:34;2.60;;;1.40;;
2041;SDS011;1026;51.460;7.252;2024-03-25T13:18:00;4.60;;;1.53;;
2041;SDS011;1026;51.460;7.252;2024-03-25T13:20:27;7.27;;;2.60;;
2041;SDS011;1026;51.460;7.252;2024-03-25T13:22:53;1.33;;;1.23;;
2041;SDS011;1026;51.460;7.252;2024-03-25T13:25:24;7.37;;;1.60;;
2041;SDS011;1026;51.460;7.252;2024-03-25T13:27:53;4.13;;;1.37;;
2041;SDS011;1026;51.460;7.252;2024-03-25T13:30:19;4.33;;;1.20;;
2041;SDS011;1026;51.460;7.252;2024-03-25T13:32:45;5.93;;;1.80;;
2041;SDS011;1026;51.460;7.252;2024-03-25T13:35:11;5.40;;;1.50;;
2041;SDS011;1026;51.460;7.252;2024-03-25T13:37:37;4.83;;;1.53;;
2041;SDS011;1026;51.460;7.252;2024-03-25T13:40:03;2.90;;;1.50;;
2041;SDS011;1026;51.460;7.252;2024-03-25T13:42:31;1.53;;;1.10;;
2041;SDS011;1026;51.460;7.252;2024-03-25T13:44:57;3.63;;;1.77;;
2041;SDS011;1026;51.460;7.252;2024-03-25T13:47:23;3.03;;;1.67;;
2041;SDS011;1026;51.460;7.252;2024-03-25T13:49:49;3.07;;;1.33;;
2041;SDS011;1026;51.460;7.252;2024-03-25T13:52:14;4.27;;;1.67;;
2041;SDS011;1026;51.460;7.252;2024-03-25T13:54:40;3.60;;;1.67;;
2041;SDS011;1026;51.460;7.252;2024-03-25T13:57:07;2.80;;;1.50;;
2041;SDS011;1026;51.460;7.252;2024-03-25T13:59:33;4.87;;;1.53;;
2041;SDS011;1026;51.460;7.252;2024-03-25T14:01:59;5.73;;;2.13;;
2041;SDS011;1026;51.460;7.252;2024-03-25T14:04:25;7.93;;;2.03;;
2041;SDS011;1026;51.460;7.252;2024-03-25T14:06:51;7.43;;;2.03;;
2041;SDS011;1026;51.460;7.252;2024-03-25T14:09:26;4.67;;;1.60;;
2041;SDS011;1026;51.460;7.252;2024-03-25T14:11:52;2.97;;;1.43;;
2041;SDS011;1026;51.460;7.252;2024-03-25T14:14:18;4.03;;;1.70;;
2041;SDS011;1026;51.460;7.252;2024-03-25T14:16:44;2.80;;;1.53;;
2041;SDS011;1026;51.460;7.252;2024-03-25T14:19:10;3.10;;;1.20;;
2041;SDS011;1026;51.460;7.252;2024-03-25T14:21:36;3.03;;;1.60;;
2041;SDS011;1026;51.460;7.252;2024-03-25T14:24:04;2.70;;;1.77;;
2041;SDS011;1026;51.460;7.252;2024-03-25T14:26:31;9.10;;;1.70;;
2041;SDS011;1026;51.460;7.252;2024-03-25T14:28:57;4.30;;;1.40;;
2041;SDS011;1026;51.460;7.252;2024-03-25T14:31:25;1.50;;;1.37;;
2041;SDS011;1026;51.460;7.252;2024-03-25T14:33:51;3.90;;;1.83;;
2041;SDS011;1026;51.460;7.252;2024-03-25T14:36:26;1.97;;;1.20;;
2041;SDS011;1026;51.460;7.252;2024-03-25T14:38:52;2.60;;;1.00;;
2041;SDS011;1026;51.460;7.252;2024-03-25T14:41:20;3.70;;;1.40;;
2041;SDS011;1026;51.460;7.252;2024-03-25T14:43:47;8.20;;;1.90;;
2041;SDS011;1026;51.460;7.252;2024-03-25T14:46:16;1.93;;;0.93;;
2041;SDS011;1026;51.460;7.252;2024-03-25T14:48:42;3.10;;;2.00;;
2041;SDS011;1026;51.460;7.252;2024-03-25T14:51:08;2.90;;;1.30;;
2041;SDS011;1026;51.460;7.252;2024-03-25T14:53:34;2.63;;;2.00;;
2041;SDS011;1026;51.460;7.252;2024-03-25T14:56:00;5.10;;;1.83;;
2041;SDS011;1026;51.460;7.252;2024-03-25T14:58:26;5.57;;;1.80;;
2041;SDS011;1026;51.460;7.252;2024-03-25T15:00:52;3.63;;;1.63;;
2041;SDS011;1026;51.460;7.252;2024-03-25T15:03:18;4.20;;;1.10;;
2041;SDS011;1026;51.460;7.252;2024-03-25T15:05:44;5.87;;;1.50;;
2041;SDS011;1026;51.460;7.252;2024-03-25T15:08:10;5.37;;;1.90;;
2041;SDS011;1026;51.460;7.252;2024-03-25T15:10:36;5.37;;;1.33;;
2041;SDS011;1026;51.460;7.252;2024-03-25T15:13:02;4.83;;;1.37;;
2041;SDS011;1026;51.460;7.252;2024-03-25T15:15:28;2.57;;;1.87;;
2041;SDS011;1026;51.460;7.252;2024-03-25T15:17:59;2.73;;;1.20;;
2041;SDS011;1026;51.460;7.252;2024-03-25T15:20:25;3.47;;;1.40;;
2041;SDS011;1026;51.460;7.252;2024-03-25T15:22:51;4.07;;;1.90;;
2041;SDS011;1026;51.460;7.252;2024-03-25T15:25:17;5.23;;;1.70;;
2041;SDS011;1026;51.460;7.252;2024-03-25T15:27:43;1.40;;;1.07;;
2041;SDS011;1026;51.460;7.252;2024-03-25T15:30:09;5.03;;;1.80;;
2041;SDS011;1026;51.460;7.252;2024-03-25T15:32:35;5.03;;;1.10;;